createdAt,value
2018-03-18T00:00:19.550Z,-1.56
2018-03-18T00:02:49.014Z,-1.67
2018-03-18T00:05:17.788Z,-2.62
2018-03-18T00:07:46.229Z,-1.87
2018-03-18T00:10:14.625Z,-1.93
2018-03-18T00:12:43.108Z,-1.88
2018-03-18T00:15:11.509Z,-2.58
2018-03-18T00:17:40.048Z,-2.58
2018-03-18T00:20:08.467Z,-2.07
2018-03-18T00:22:36.892Z,-2.19
2018-03-18T00:25:05.668Z,-2.96
2018-03-18T00:27:34.086Z,-2.52
2018-03-18T00:30:02.552Z,-3.50
2018-03-18T00:32:31.000Z,-3.06
2018-03-18T00:34:59.409Z,-2.54
2018-03-18T00:37:27.893Z,-2.67
2018-03-18T00:39:56.296Z,-2.82
2018-03-18T00:42:24.729Z,-2.08
2018-03-18T00:44:53.138Z,-2.04
2018-03-18T00:47:21.593Z,-3.07
2018-03-18T00:49:49.999Z,-3.24
2018-03-18T00:52:18.398Z,-2.91
2018-03-18T00:54:46.939Z,-2.93
2018-03-18T00:57:15.370Z,-2.14
2018-03-18T00:59:43.769Z,-2.49
2018-03-18T01:02:12.173Z,-2.43
2018-03-18T01:04:40.593Z,-2.78
2018-03-18T01:07:09.145Z,-2.42
2018-03-18T01:09:37.536Z,-2.45
2018-03-18T01:12:06.064Z,-2.27
2018-03-18T01:14:34.514Z,-3.06
2018-03-18T01:17:02.941Z,-2.39
2018-03-18T01:19:31.382Z,-2.54
2018-03-18T01:21:59.754Z,-2.71
2018-03-18T01:24:28.256Z,-3.10
2018-03-18T01:26:56.660Z,-2.98
2018-03-18T01:29:25.072Z,-2.82
2018-03-18T01:31:53.545Z,-2.98
2018-03-18T01:34:21.913Z,-3.11
2018-03-18T01:36:50.318Z,-2.67
2018-03-18T01:39:18.789Z,-3.36
2018-03-18T01:41:47.201Z,-2.77
2018-03-18T01:44:15.750Z,-3.04
2018-03-18T01:46:44.180Z,-2.72
2018-03-18T01:49:12.584Z,-2.60
2018-03-18T01:51:41.000Z,-2.55
2018-03-18T01:54:09.418Z,-2.79
2018-03-18T01:56:38.186Z,-3.15
2018-03-18T01:59:06.602Z,-2.90
2018-03-18T02:01:35.043Z,-2.64
2018-03-18T02:04:03.436Z,-3.05
2018-03-18T02:06:31.944Z,-2.78
2018-03-18T02:09:00.339Z,-3.23
2018-03-18T02:11:28.730Z,-1.83
2018-03-18T02:13:57.149Z,-3.64
2018-03-18T02:16:25.549Z,-2.31
2018-03-18T02:18:54.017Z,-2.62
2018-03-18T02:21:22.434Z,-2.73
2018-03-18T02:23:50.830Z,-2.67
2018-03-18T02:26:19.243Z,-3.03
2018-03-18T02:28:47.652Z,-3.07
2018-03-18T02:31:16.126Z,-3.06
2018-03-18T02:33:44.555Z,-2.13
2018-03-18T02:36:12.967Z,-3.25
2018-03-18T02:38:41.359Z,-3.10
2018-03-18T02:41:09.781Z,-3.62
2018-03-18T02:43:38.220Z,-1.85
2018-03-18T02:46:06.621Z,-3.17
2018-03-18T02:48:35.181Z,-3.41
2018-03-18T02:51:03.704Z,-2.55
2018-03-18T02:53:32.094Z,-2.34
2018-03-18T02:56:00.502Z,-2.35
2018-03-18T02:58:28.982Z,-2.10
2018-03-18T03:00:57.436Z,-2.16
2018-03-18T03:03:25.811Z,-2.23
2018-03-18T03:05:54.223Z,-2.38
2018-03-18T03:08:22.643Z,-1.65
2018-03-18T03:10:51.037Z,-2.07
2018-03-18T03:13:19.596Z,-3.22
2018-03-18T03:15:48.023Z,-2.70
2018-03-18T03:18:16.673Z,-2.51
2018-03-18T03:20:45.074Z,-3.37
2018-03-18T03:23:13.557Z,-3.46
2018-03-18T03:25:41.974Z,-2.50
2018-03-18T03:28:10.428Z,-3.05
2018-03-18T03:30:38.840Z,-3.00
2018-03-18T03:33:07.328Z,-2.85
2018-03-18T03:35:35.732Z,-2.97
2018-03-18T03:38:04.135Z,-2.99
2018-03-18T03:40:32.581Z,-3.38
2018-03-18T03:43:00.998Z,-2.11
2018-03-18T03:45:29.459Z,-1.97
2018-03-18T03:47:57.935Z,-2.30
2018-03-18T03:50:26.340Z,-2.89
2018-03-18T03:52:54.735Z,-2.43
2018-03-18T03:55:23.121Z,-2.76
2018-03-18T03:57:51.598Z,-2.18
2018-03-18T04:00:37.451Z,-2.26
2018-03-18T04:03:05.852Z,-2.77
2018-03-18T04:05:34.312Z,-2.60
2018-03-18T04:08:02.736Z,-3.32
2018-03-18T04:10:31.143Z,-2.38
2018-03-18T04:12:59.576Z,-2.88
2018-03-18T04:15:27.975Z,-3.36
2018-03-18T04:17:56.438Z,-2.45
2018-03-18T04:20:24.832Z,-3.59
2018-03-18T04:22:53.620Z,-2.15
2018-03-18T04:25:22.034Z,-2.72
2018-03-18T04:27:50.462Z,-2.92
2018-03-18T04:30:18.858Z,-2.76
2018-03-18T04:32:47.268Z,-3.35
2018-03-18T04:35:15.755Z,-2.25
2018-03-18T04:37:44.171Z,-2.98
2018-03-18T04:40:12.612Z,-3.20
2018-03-18T04:42:41.024Z,-2.37
2018-03-18T04:45:09.426Z,-3.32
2018-03-18T04:47:37.958Z,-3.36
2018-03-18T04:50:06.377Z,-3.70
2018-03-18T04:52:34.844Z,-3.66
2018-03-18T04:55:03.261Z,-3.04
2018-03-18T04:57:31.672Z,-2.07
2018-03-18T05:00:00.090Z,-3.69
2018-03-18T05:02:28.554Z,-3.48
2018-03-18T05:04:57.016Z,-3.23
2018-03-18T05:07:25.504Z,-3.03
2018-03-18T05:09:53.906Z,-2.04
2018-03-18T05:12:22.305Z,-2.93
2018-03-18T05:14:50.719Z,-2.64
2018-03-18T05:17:19.257Z,-3.26
2018-03-18T05:19:47.663Z,-3.48
2018-03-18T05:22:16.084Z,-3.32
2018-03-18T05:24:44.557Z,-3.27
2018-03-18T05:27:12.947Z,-2.76
2018-03-18T05:29:41.514Z,-2.99
2018-03-18T05:32:09.990Z,-2.80
2018-03-18T05:34:38.422Z,-3.08
2018-03-18T05:37:06.818Z,-2.94
2018-03-18T05:39:35.240Z,-2.61
2018-03-18T05:42:03.695Z,-2.72
2018-03-18T05:44:32.114Z,-2.78
2018-03-18T05:47:00.632Z,-2.78
2018-03-18T05:49:29.014Z,-2.72
2018-03-18T05:51:57.479Z,-2.82
2018-03-18T05:54:26.107Z,-2.68
2018-03-18T05:56:54.571Z,-2.56
2018-03-18T05:59:22.985Z,-3.02
2018-03-18T06:01:51.378Z,-2.94
2018-03-18T06:04:19.860Z,-3.06
2018-03-18T06:06:48.297Z,-3.37
2018-03-18T06:09:16.730Z,-3.08
2018-03-18T06:11:45.157Z,-3.63
2018-03-18T06:14:13.626Z,-2.76
2018-03-18T06:16:42.030Z,-2.49
2018-03-18T06:19:10.620Z,-2.74
2018-03-18T06:21:39.060Z,-3.49
2018-03-18T06:24:07.523Z,-3.32
2018-03-18T06:26:36.033Z,-3.32
2018-03-18T06:29:04.471Z,-3.03
2018-03-18T06:31:33.204Z,-3.04
2018-03-18T06:34:01.673Z,-3.07
2018-03-18T06:36:30.075Z,-3.48
2018-03-18T06:38:58.625Z,-2.99
2018-03-18T06:41:27.021Z,-3.60
2018-03-18T06:43:55.505Z,-3.10
2018-03-18T06:46:23.953Z,-2.43
2018-03-18T06:48:52.352Z,-2.78
2018-03-18T06:51:20.811Z,-1.79
2018-03-18T06:53:49.237Z,-2.55
2018-03-18T06:56:17.652Z,-1.68
2018-03-18T06:58:46.077Z,-3.03
2018-03-18T07:01:14.575Z,-2.51
2018-03-18T07:03:43.016Z,-2.96
2018-03-18T07:06:11.437Z,-2.43
2018-03-18T07:08:39.897Z,-2.53
2018-03-18T07:11:08.309Z,-3.81
2018-03-18T07:13:36.734Z,-3.11
2018-03-18T07:16:05.115Z,-3.76
2018-03-18T07:18:33.893Z,-3.36
2018-03-18T07:21:02.283Z,-3.23
2018-03-18T07:23:30.697Z,-2.91
2018-03-18T07:25:59.117Z,-2.82
2018-03-18T07:28:27.952Z,-3.54
2018-03-18T07:30:56.445Z,-2.01
2018-03-18T07:33:24.873Z,-2.53
2018-03-18T07:35:53.507Z,-2.71
2018-03-18T07:38:21.937Z,-2.26
2018-03-18T07:40:50.383Z,-0.69
2018-03-18T07:43:18.835Z,-1.59
2018-03-18T07:45:47.311Z,-0.71
2018-03-18T07:48:15.710Z,0.40
2018-03-18T07:50:44.110Z,1.29
2018-03-18T07:53:12.660Z,2.58
2018-03-18T07:55:41.140Z,3.10
2018-03-18T07:58:09.540Z,2.51
2018-03-18T08:00:37.978Z,1.18
2018-03-18T08:03:06.364Z,2.94
2018-03-18T08:05:34.795Z,2.45
2018-03-18T08:08:03.219Z,4.19
2018-03-18T08:10:31.641Z,2.48
2018-03-18T08:13:00.041Z,3.33
2018-03-18T08:15:28.451Z,3.20
2018-03-18T08:17:56.894Z,3.12
2018-03-18T08:20:25.290Z,2.17
2018-03-18T08:22:53.693Z,0.10
2018-03-18T08:25:22.075Z,0.31
2018-03-18T08:27:50.480Z,1.03
2018-03-18T08:30:18.935Z,3.28
2018-03-18T08:32:47.323Z,4.13
2018-03-18T08:35:15.724Z,4.74
2018-03-18T08:37:44.237Z,6.43
2018-03-18T08:40:12.639Z,6.35
2018-03-18T08:42:41.092Z,6.56
2018-03-18T08:45:09.505Z,5.18
2018-03-18T08:47:37.913Z,6.14
2018-03-18T08:50:06.319Z,8.55
2018-03-18T08:52:34.859Z,7.29
2018-03-18T08:55:03.279Z,7.39
2018-03-18T08:57:31.708Z,6.09
2018-03-18T09:00:00.241Z,7.86
2018-03-18T09:02:28.628Z,6.66
2018-03-18T09:04:57.039Z,6.27
2018-03-18T09:07:25.475Z,4.24
2018-03-18T09:09:53.876Z,3.97
2018-03-18T09:12:22.315Z,4.68
2018-03-18T09:14:50.773Z,8.08
2018-03-18T09:17:19.174Z,9.37
2018-03-18T09:19:47.675Z,8.67
2018-03-18T09:22:16.094Z,6.64
2018-03-18T09:24:44.496Z,7.68
2018-03-18T09:27:12.921Z,6.69
2018-03-18T09:29:41.388Z,6.01
2018-03-18T09:32:09.836Z,9.06
2018-03-18T09:34:38.278Z,5.43
2018-03-18T09:37:06.682Z,4.56
2018-03-18T09:39:35.095Z,4.77
2018-03-18T09:42:03.562Z,5.70
2018-03-18T09:44:31.932Z,4.77
2018-03-18T09:47:00.340Z,6.35
2018-03-18T09:49:28.742Z,4.43
2018-03-18T09:51:57.133Z,4.19
2018-03-18T09:54:25.592Z,3.08
2018-03-18T09:56:53.984Z,3.63
2018-03-18T09:59:22.366Z,4.29
2018-03-18T10:01:50.753Z,6.15
2018-03-18T10:04:19.244Z,7.12
2018-03-18T10:06:47.705Z,7.63
2018-03-18T10:09:16.107Z,6.59
2018-03-18T10:11:44.549Z,6.13
2018-03-18T10:14:13.049Z,7.47
2018-03-18T10:16:41.424Z,4.21
2018-03-18T10:19:09.959Z,4.66
2018-03-18T10:21:38.354Z,3.90
2018-03-18T10:24:06.748Z,4.23
2018-03-18T10:26:35.174Z,4.55
2018-03-18T10:29:03.570Z,4.37
2018-03-18T10:31:32.026Z,4.60
2018-03-18T10:34:00.434Z,5.22
2018-03-18T10:36:28.819Z,3.86
2018-03-18T10:38:57.300Z,2.51
2018-03-18T10:41:25.679Z,3.02
2018-03-18T10:43:54.188Z,2.18
2018-03-18T10:46:22.581Z,2.62
2018-03-18T10:48:51.469Z,1.51
2018-03-18T10:51:19.956Z,2.20
2018-03-18T10:53:48.338Z,2.15
2018-03-18T10:56:16.728Z,2.90
2018-03-18T10:58:45.216Z,1.85
2018-03-18T11:04:17.412Z,3.96
2018-03-18T11:06:45.843Z,4.17
2018-03-18T11:09:14.227Z,2.85
2018-03-18T11:11:42.791Z,2.27
2018-03-18T11:14:11.186Z,3.01
2018-03-18T11:16:39.659Z,3.41
2018-03-18T11:19:08.107Z,3.76
2018-03-18T11:21:36.571Z,3.99
2018-03-18T11:24:04.974Z,3.84
2018-03-18T11:26:33.501Z,4.76
2018-03-18T11:29:01.898Z,3.12
2018-03-18T11:31:30.311Z,4.55
2018-03-18T11:33:58.796Z,4.22
2018-03-18T11:36:27.209Z,5.11
2018-03-18T11:38:55.601Z,5.36
2018-03-18T11:41:24.021Z,6.52
2018-03-18T11:43:52.389Z,5.10
2018-03-18T11:46:20.838Z,6.45
2018-03-18T11:48:49.240Z,6.16
2018-03-18T11:51:17.650Z,7.75
2018-03-18T11:53:46.064Z,5.73
2018-03-18T11:56:14.484Z,5.94
2018-03-18T11:58:42.923Z,7.69
2018-03-18T12:01:11.332Z,5.98
2018-03-18T12:03:39.725Z,4.37
2018-03-18T12:06:08.108Z,6.97
2018-03-18T12:08:59.171Z,6.46
2018-03-18T12:11:27.567Z,7.23
2018-03-18T12:13:56.073Z,7.97
2018-03-18T12:16:24.496Z,7.85
2018-03-18T12:18:52.993Z,6.48
2018-03-18T12:21:21.596Z,5.25
2018-03-18T12:23:50.008Z,5.15
2018-03-18T12:26:18.406Z,5.49
2018-03-18T12:28:46.809Z,3.02
2018-03-18T12:31:15.242Z,2.82
2018-03-18T12:33:43.710Z,4.58
2018-03-18T12:36:12.176Z,5.34
2018-03-18T12:38:40.683Z,3.97
2018-03-18T12:41:09.064Z,4.76
2018-03-18T12:43:38.206Z,3.49
2018-03-18T12:46:07.050Z,2.90
2018-03-18T12:48:35.596Z,4.33
2018-03-18T12:51:03.982Z,4.34
2018-03-18T12:53:32.399Z,4.18
2018-03-18T12:56:00.801Z,4.18
2018-03-18T12:58:29.923Z,2.47
2018-03-18T13:00:58.347Z,1.41
2018-03-18T13:03:26.752Z,1.58
2018-03-18T13:05:55.155Z,1.68
2018-03-18T13:08:23.663Z,1.63
2018-03-18T13:10:52.136Z,1.37
2018-03-18T13:13:20.539Z,0.71
2018-03-18T13:15:48.940Z,0.29
2018-03-18T13:18:17.364Z,1.11
2018-03-18T13:20:45.758Z,0.35
2018-03-18T13:23:14.192Z,-0.20
2018-03-18T13:25:42.594Z,0.50
2018-03-18T13:28:11.141Z,1.09
2018-03-18T13:30:39.550Z,-0.18
2018-03-18T13:33:07.947Z,1.07
2018-03-18T13:35:36.433Z,0.16
2018-03-18T13:38:04.844Z,-0.50
2018-03-18T13:40:36.354Z,-0.08
2018-03-18T13:43:04.762Z,-1.02
2018-03-18T13:45:33.159Z,1.06
2018-03-18T13:48:01.555Z,0.76
2018-03-18T13:50:29.957Z,-0.05
2018-03-18T13:52:58.425Z,-0.30
2018-03-18T13:55:26.811Z,-0.07
2018-03-18T13:57:55.198Z,0.55
2018-03-18T14:00:23.593Z,0.49
2018-03-18T14:02:51.992Z,1.24
2018-03-18T14:05:20.640Z,0.67
2018-03-18T14:07:49.074Z,0.85
2018-03-18T14:10:17.483Z,0.31
2018-03-18T14:12:45.980Z,0.74
2018-03-18T14:15:14.380Z,0.51
2018-03-18T14:17:42.800Z,-0.21
2018-03-18T14:20:11.329Z,0.66
2018-03-18T14:22:39.919Z,0.99
2018-03-18T14:25:08.350Z,0.21
2018-03-18T14:27:36.757Z,0.34
2018-03-18T14:30:05.176Z,0.92
2018-03-18T14:32:33.589Z,-0.03
2018-03-18T14:35:02.127Z,-0.62
2018-03-18T14:37:30.523Z,-0.02
2018-03-18T14:39:58.927Z,-0.42
2018-03-18T14:42:27.346Z,-0.42
2018-03-18T14:44:55.768Z,0.23
2018-03-18T14:47:24.204Z,-0.35
2018-03-18T14:49:52.693Z,0.60
2018-03-18T14:52:21.177Z,0.71
2018-03-18T14:54:49.583Z,1.20
2018-03-18T14:57:18.123Z,2.01
2018-03-18T14:59:46.531Z,0.21
2018-03-18T15:02:14.930Z,1.33
2018-03-18T15:04:43.329Z,1.00
2018-03-18T15:07:11.793Z,0.93
2018-03-18T15:09:40.253Z,0.02
2018-03-18T15:12:08.657Z,0.64
2018-03-18T15:14:37.064Z,0.85
2018-03-18T15:17:05.500Z,0.47
2018-03-18T15:19:33.892Z,0.77
2018-03-18T15:22:02.335Z,0.49
2018-03-18T15:24:30.748Z,0.98
2018-03-18T15:26:59.179Z,0.81
2018-03-18T15:29:27.578Z,1.01
2018-03-18T15:31:55.974Z,0.80
2018-03-18T15:34:24.429Z,0.93
2018-03-18T15:36:52.849Z,0.18
2018-03-18T15:39:21.305Z,0.58
2018-03-18T15:41:49.717Z,-0.15
2018-03-18T15:44:18.109Z,0.35
2018-03-18T15:46:46.514Z,0.37
2018-03-18T15:49:14.919Z,0.14
2018-03-18T15:51:43.404Z,0.34
2018-03-18T15:54:11.807Z,-0.57
2018-03-18T15:56:40.209Z,-0.38
2018-03-18T15:59:08.646Z,-0.21
2018-03-18T16:01:37.028Z,-0.23
2018-03-18T16:04:05.502Z,0.24
2018-03-18T16:06:33.919Z,0.52
2018-03-18T16:09:02.317Z,-0.57
2018-03-18T16:11:30.776Z,0.71
2018-03-18T16:13:59.177Z,-0.50
2018-03-18T16:16:27.964Z,-0.80
2018-03-18T16:18:56.360Z,0.04
2018-03-18T16:21:24.947Z,-0.10
2018-03-18T16:23:53.380Z,0.22
2018-03-18T16:26:21.861Z,0.21
2018-03-18T16:28:50.296Z,1.62
2018-03-18T16:31:18.705Z,1.01
2018-03-18T16:33:47.169Z,0.96
2018-03-18T16:36:15.591Z,-0.09
2018-03-18T16:38:43.987Z,0.22
2018-03-18T16:41:12.444Z,-0.35
2018-03-18T16:43:40.832Z,0.12
2018-03-18T16:46:09.308Z,0.07
2018-03-18T16:48:37.789Z,-0.46
2018-03-18T16:51:06.200Z,-0.09
2018-03-18T16:53:34.609Z,-0.26
2018-03-18T16:56:03.148Z,0.25
2018-03-18T16:58:31.560Z,-0.01
2018-03-18T17:01:00.029Z,-1.41
2018-03-18T17:03:28.426Z,-0.87
2018-03-18T17:05:56.936Z,-0.47
2018-03-18T17:08:25.435Z,-0.68
2018-03-18T17:10:53.823Z,-0.08
2018-03-18T17:13:22.284Z,-1.07
2018-03-18T17:15:50.711Z,-1.43
2018-03-18T17:18:19.120Z,-0.65
2018-03-18T17:20:47.902Z,-0.12
2018-03-18T17:23:16.309Z,-0.24
2018-03-18T17:25:44.712Z,-0.85
2018-03-18T17:28:13.130Z,-1.12
2018-03-18T17:30:41.561Z,-0.55
2018-03-18T17:33:10.126Z,-0.44
2018-03-18T17:35:38.535Z,-0.93
2018-03-18T17:38:06.931Z,-0.57
2018-03-18T17:40:35.391Z,-1.42
2018-03-18T17:43:03.811Z,-0.51
2018-03-18T17:45:43.932Z,-1.10
2018-03-18T17:48:24.040Z,-0.35
2018-03-18T17:51:04.294Z,-1.21
2018-03-18T17:53:44.602Z,-1.12
2018-03-18T17:59:16.888Z,-0.97
2018-03-18T18:01:45.389Z,-0.30
2018-03-18T18:04:13.995Z,-0.88
2018-03-18T18:06:42.424Z,-0.18
2018-03-18T18:09:10.865Z,-1.11
2018-03-18T18:11:39.331Z,-0.40
2018-03-18T18:14:07.783Z,-0.76
2018-03-18T18:16:36.188Z,-1.58
2018-03-18T18:19:04.602Z,-0.75
2018-03-18T18:21:33.000Z,-0.35
2018-03-18T18:24:01.531Z,-0.91
2018-03-18T18:26:29.941Z,-0.84
2018-03-18T18:29:01.428Z,-0.45
2018-03-18T18:31:29.832Z,-0.61
2018-03-18T18:33:58.325Z,-0.38
2018-03-18T18:36:26.734Z,-1.07
2018-03-18T18:38:55.212Z,-0.89
2018-03-18T18:41:23.589Z,-0.69
2018-03-18T18:43:51.944Z,-1.29
2018-03-18T18:46:20.320Z,-0.95
2018-03-18T18:48:48.822Z,-0.43
2018-03-18T18:51:17.235Z,-0.82
2018-03-18T18:53:46.184Z,-0.51
2018-03-18T18:56:14.707Z,-1.01
2018-03-18T18:58:43.118Z,-0.71
2018-03-18T19:01:11.508Z,-0.94
2018-03-18T19:03:39.916Z,-0.47
2018-03-18T19:06:08.318Z,-1.14
2018-03-18T19:08:36.709Z,-1.50
2018-03-18T19:11:05.172Z,-1.34
2018-03-18T19:13:33.553Z,-0.62
2018-03-18T19:16:01.965Z,-1.42
2018-03-18T19:18:30.423Z,-1.30
2018-03-18T19:20:58.821Z,-1.79
2018-03-18T19:23:27.301Z,-1.23
2018-03-18T19:25:55.789Z,-0.84
2018-03-18T19:28:24.112Z,-0.41
2018-03-18T19:30:52.585Z,-0.65
2018-03-18T19:33:20.971Z,-0.63
2018-03-18T19:35:49.358Z,-0.87
2018-03-18T19:38:17.912Z,-0.47
2018-03-18T19:40:46.841Z,-1.24
2018-03-18T19:43:15.293Z,-1.21
2018-03-18T19:45:43.791Z,-0.09
2018-03-18T19:48:12.297Z,-0.91
2018-03-18T19:50:40.845Z,-1.10
2018-03-18T19:53:09.243Z,-1.33
2018-03-18T19:55:37.768Z,-1.29
2018-03-18T19:58:06.165Z,-0.92
2018-03-18T20:00:34.576Z,-1.11
2018-03-18T20:03:02.997Z,-1.52
2018-03-18T20:05:31.380Z,-1.69
2018-03-18T20:07:59.845Z,-1.32
2018-03-18T20:10:28.289Z,-0.74
2018-03-18T20:12:56.690Z,-0.60
2018-03-18T20:15:25.128Z,-0.65
2018-03-18T20:17:53.668Z,-1.06
2018-03-18T20:20:22.163Z,-1.39
2018-03-18T20:22:50.574Z,-1.00
2018-03-18T20:25:19.017Z,-0.18
2018-03-18T20:27:47.488Z,-1.01
2018-03-18T20:30:15.921Z,-1.08
2018-03-18T20:32:44.370Z,0.40
2018-03-18T20:35:12.873Z,-0.36
2018-03-18T20:37:41.306Z,-1.39
2018-03-18T20:40:09.726Z,-1.23
2018-03-18T20:42:38.197Z,-1.68
2018-03-18T20:45:06.812Z,-1.57
2018-03-18T20:47:35.456Z,-0.67
2018-03-18T20:50:08.250Z,-1.24
2018-03-18T20:52:36.657Z,-1.37
2018-03-18T20:55:05.066Z,-1.51
2018-03-18T20:57:33.449Z,-1.36
2018-03-18T21:00:01.914Z,-0.82
2018-03-18T21:02:30.340Z,-1.46
2018-03-18T21:04:58.747Z,-0.29
2018-03-18T21:07:27.449Z,-1.03
2018-03-18T21:09:56.680Z,-0.90
2018-03-18T21:12:25.129Z,-2.09
2018-03-18T21:14:53.560Z,-1.57
2018-03-18T21:17:22.422Z,-1.09
2018-03-18T21:19:51.178Z,-1.43
2018-03-18T21:22:19.606Z,-1.49
2018-03-18T21:24:48.108Z,-1.73
2018-03-18T21:27:16.488Z,-2.13
2018-03-18T21:29:44.857Z,-1.86
2018-03-18T21:32:13.224Z,-1.70
2018-03-18T21:34:42.564Z,-1.90
2018-03-18T21:37:10.930Z,-1.03
2018-03-18T21:39:39.276Z,-1.53
2018-03-18T21:42:07.635Z,-1.07
2018-03-18T21:44:36.136Z,-1.30
2018-03-18T21:47:04.553Z,-1.58
2018-03-18T21:49:32.928Z,-1.90
2018-03-18T21:52:01.276Z,-1.52
2018-03-18T21:54:29.653Z,-1.38
2018-03-18T21:56:58.038Z,-1.39
2018-03-18T21:59:26.434Z,-1.62
2018-03-18T22:01:54.856Z,-1.90
2018-03-18T22:04:23.271Z,-1.43
2018-03-18T22:06:51.687Z,-1.93
2018-03-18T22:09:20.052Z,-1.87
2018-03-18T22:11:48.441Z,-1.69
2018-03-18T22:14:16.809Z,-1.61
2018-03-18T22:16:45.189Z,-1.72
2018-03-18T22:19:13.542Z,-2.16
2018-03-18T22:21:42.159Z,-1.24
2018-03-18T22:24:10.586Z,-2.14
2018-03-18T22:26:39.034Z,-1.83
2018-03-18T22:29:07.683Z,-1.69
2018-03-18T22:31:36.048Z,-1.91
2018-03-18T22:34:04.460Z,-2.03
2018-03-18T22:36:32.904Z,-1.62
2018-03-18T22:39:01.295Z,-2.07
2018-03-18T22:41:29.680Z,-2.47
2018-03-18T22:43:58.129Z,-1.49
2018-03-18T22:46:26.560Z,-2.05
2018-03-18T22:48:54.940Z,-2.03
2018-03-18T22:51:23.465Z,-1.26
2018-03-18T22:53:51.851Z,-2.01
2018-03-18T22:56:20.269Z,-1.78
2018-03-18T22:58:48.801Z,-2.03
2018-03-18T23:01:17.197Z,-1.60
2018-03-18T23:03:45.631Z,-1.97
2018-03-18T23:06:14.013Z,-1.51
2018-03-18T23:08:42.411Z,-1.68
2018-03-18T23:11:10.928Z,-2.38
2018-03-18T23:13:39.341Z,-1.57
2018-03-18T23:16:07.728Z,-1.82
2018-03-18T23:18:36.121Z,-2.38
2018-03-18T23:21:04.508Z,-1.44
2018-03-18T23:23:33.030Z,-1.54
2018-03-18T23:26:01.417Z,-1.19
2018-03-18T23:28:29.805Z,-1.13
2018-03-18T23:30:58.221Z,-1.71
2018-03-18T23:33:26.609Z,-2.02
2018-03-18T23:35:55.378Z,-2.35
2018-03-18T23:38:23.759Z,-2.01
2018-03-18T23:40:52.153Z,-2.01
2018-03-18T23:43:20.556Z,-1.84
2018-03-18T23:45:48.955Z,-1.32
2018-03-18T23:48:17.493Z,-1.48
2018-03-18T23:50:48.565Z,-0.95
2018-03-18T23:53:17.017Z,-0.90
2018-03-18T23:55:45.405Z,-0.85
2018-03-18T23:58:13.810Z,-1.36
